N17AC EKBI-EHAM
Flight info
| Callsign | N17AC |
|---|---|
| Flight time | 0h 48m |
| Altitude | 28000 |
| Route | MIKR5A MIKRO IPSUB P174 KUBAT T200 BLUFA BLUF1A |
| Aircraft | C700/L-DGV/S |
Departure
| Time | 2026-04-30 18:13 |
|---|---|
| Airport | Billund Airport (EKBI) |
Arrival
| Time | 2026-04-30 19:02 |
|---|---|
| Airport | Amsterdam Airport Schiphol (EHAM) |
| Time | Latitude | Longitude | Altitude | Speed | Heading |
|---|---|---|---|---|---|
| 2026-04-30 17:42 | 55.73760 | 9.14212 | 223 ft | 0 kts | 172° |
| 2026-04-30 18:00 | 55.73755 | 9.14217 | 223 ft | 3 kts | 147° |
| 2026-04-30 18:00 | 55.73733 | 9.14502 | 225 ft | 12 kts | 86° |
| 2026-04-30 18:01 | 55.73745 | 9.14857 | 227 ft | 12 kts | 87° |
| 2026-04-30 18:02 | 55.73758 | 9.15359 | 231 ft | 8 kts | 86° |
| 2026-04-30 18:02 | 55.73761 | 9.15612 | 234 ft | 5 kts | 115° |
| 2026-04-30 18:03 | 55.73754 | 9.15254 | 230 ft | 21 kts | 266° |
| 2026-04-30 18:04 | 55.73731 | 9.14385 | 224 ft | 17 kts | 276° |
| 2026-04-30 18:05 | 55.73872 | 9.14248 | 223 ft | 17 kts | 59° |
| 2026-04-30 18:06 | 55.74191 | 9.14810 | 227 ft | 20 kts | 90° |
| 2026-04-30 18:07 | 55.74228 | 9.15980 | 235 ft | 27 kts | 86° |
| 2026-04-30 18:08 | 55.74256 | 9.16825 | 240 ft | 16 kts | 91° |
| 2026-04-30 18:09 | 55.74191 | 9.16909 | 241 ft | 0 kts | 177° |
| 2026-04-30 18:11 | 55.74188 | 9.16910 | 241 ft | 2 kts | 177° |
| 2026-04-30 18:12 | 55.74086 | 9.16726 | 242 ft | 9 kts | 266° |
| 2026-04-30 18:13 | 55.74083 | 9.16658 | 242 ft | 24 kts | 266° |
| 2026-04-30 18:13 | 55.73990 | 9.12326 | 854 ft | 186 kts | 270° |
| 2026-04-30 18:14 | 55.75431 | 9.07678 | 1694 ft | 199 kts | 324° |
| 2026-04-30 18:15 | 55.78117 | 9.01898 | 2663 ft | 201 kts | 283° |
| 2026-04-30 18:15 | 55.75472 | 8.94997 | 4737 ft | 257 kts | 230° |
| 2026-04-30 18:16 | 55.73321 | 8.89780 | 6125 ft | 267 kts | 232° |
| 2026-04-30 18:16 | 55.70984 | 8.84380 | 7593 ft | 281 kts | 231° |
| 2026-04-30 18:17 | 55.69789 | 8.81596 | 8406 ft | 284 kts | 231° |
| 2026-04-30 18:17 | 55.68593 | 8.78801 | 9216 ft | 287 kts | 231° |
| 2026-04-30 18:17 | 55.66121 | 8.73064 | 10841 ft | 305 kts | 231° |
| 2026-04-30 18:18 | 55.64783 | 8.69976 | 11627 ft | 321 kts | 231° |
| 2026-04-30 18:18 | 55.63385 | 8.66743 | 12425 ft | 351 kts | 230° |
| 2026-04-30 18:18 | 55.61481 | 8.63838 | 13240 ft | 371 kts | 208° |
| 2026-04-30 18:18 | 55.59114 | 8.61938 | 14091 ft | 379 kts | 199° |
| 2026-04-30 18:19 | 55.56613 | 8.60278 | 14880 ft | 386 kts | 199° |
| 2026-04-30 18:19 | 55.54138 | 8.58396 | 15664 ft | 390 kts | 205° |
| 2026-04-30 18:19 | 55.51741 | 8.56084 | 16464 ft | 395 kts | 208° |
| 2026-04-30 18:19 | 55.49324 | 8.53723 | 17281 ft | 399 kts | 206° |
| 2026-04-30 18:20 | 55.46820 | 8.51565 | 18116 ft | 403 kts | 204° |
| 2026-04-30 18:20 | 55.44280 | 8.49415 | 18960 ft | 408 kts | 205° |
| 2026-04-30 18:20 | 55.41733 | 8.47113 | 19714 ft | 414 kts | 207° |
| 2026-04-30 18:20 | 55.39160 | 8.44771 | 20495 ft | 418 kts | 206° |
| 2026-04-30 18:21 | 55.36544 | 8.42472 | 21297 ft | 424 kts | 206° |
| 2026-04-30 18:21 | 55.33879 | 8.40142 | 22117 ft | 431 kts | 206° |
| 2026-04-30 18:21 | 55.31183 | 8.37750 | 22965 ft | 436 kts | 207° |
| 2026-04-30 18:21 | 55.28454 | 8.35328 | 23835 ft | 443 kts | 207° |
| 2026-04-30 18:22 | 55.25687 | 8.32895 | 24610 ft | 449 kts | 207° |
| 2026-04-30 18:22 | 55.20047 | 8.27943 | 26149 ft | 457 kts | 207° |
| 2026-04-30 18:22 | 55.17192 | 8.25437 | 26953 ft | 460 kts | 207° |
| 2026-04-30 18:23 | 55.14327 | 8.22930 | 27778 ft | 462 kts | 207° |
| 2026-04-30 18:23 | 55.11480 | 8.20443 | 28437 ft | 468 kts | 207° |
| 2026-04-30 18:23 | 55.08486 | 8.17829 | 28451 ft | 480 kts | 207° |
| 2026-04-30 18:23 | 55.05552 | 8.15276 | 28454 ft | 477 kts | 207° |
| 2026-04-30 18:24 | 54.96621 | 8.07521 | 28464 ft | 479 kts | 207° |
| 2026-04-30 18:25 | 54.90669 | 8.02377 | 28463 ft | 476 kts | 207° |
| 2026-04-30 18:25 | 54.81746 | 7.94693 | 28462 ft | 478 kts | 207° |
| 2026-04-30 18:26 | 54.72800 | 7.87032 | 28460 ft | 477 kts | 207° |
| 2026-04-30 18:27 | 54.63918 | 7.79460 | 28452 ft | 475 kts | 206° |
| 2026-04-30 18:28 | 54.55023 | 7.71914 | 28447 ft | 475 kts | 206° |
| 2026-04-30 18:28 | 54.46079 | 7.64364 | 28448 ft | 478 kts | 206° |
| 2026-04-30 18:29 | 54.34168 | 7.54368 | 28442 ft | 477 kts | 206° |
| 2026-04-30 18:30 | 54.22228 | 7.44410 | 27918 ft | 477 kts | 206° |
| 2026-04-30 18:31 | 54.19267 | 7.41952 | 27502 ft | 470 kts | 206° |
| 2026-04-30 18:31 | 54.13422 | 7.37109 | 26681 ft | 466 kts | 205° |
| 2026-04-30 18:32 | 54.07640 | 7.32333 | 26440 ft | 464 kts | 205° |
| 2026-04-30 18:32 | 54.04718 | 7.29927 | 26438 ft | 466 kts | 205° |
| 2026-04-30 18:32 | 53.98908 | 7.25148 | 26437 ft | 463 kts | 205° |
| 2026-04-30 18:33 | 53.96006 | 7.22769 | 26434 ft | 464 kts | 205° |
| 2026-04-30 18:33 | 53.90218 | 7.18032 | 26436 ft | 464 kts | 205° |
| 2026-04-30 18:33 | 53.87292 | 7.15645 | 26434 ft | 465 kts | 205° |
| 2026-04-30 18:34 | 53.85364 | 7.14073 | 26434 ft | 464 kts | 205° |
| 2026-04-30 18:34 | 53.79542 | 7.09335 | 26429 ft | 464 kts | 205° |
| 2026-04-30 18:34 | 53.76632 | 7.06973 | 26426 ft | 464 kts | 204° |
| 2026-04-30 18:35 | 53.73720 | 7.04614 | 26428 ft | 463 kts | 204° |
| 2026-04-30 18:35 | 53.70820 | 7.02267 | 26423 ft | 462 kts | 204° |
| 2026-04-30 18:35 | 53.67913 | 6.99916 | 26423 ft | 463 kts | 204° |
| 2026-04-30 18:36 | 53.62102 | 6.95235 | 26419 ft | 462 kts | 204° |
| 2026-04-30 18:36 | 53.59244 | 6.92935 | 26417 ft | 461 kts | 204° |
| 2026-04-30 18:36 | 53.53463 | 6.88294 | 26415 ft | 460 kts | 204° |
| 2026-04-30 18:37 | 53.50560 | 6.85972 | 26414 ft | 461 kts | 204° |
| 2026-04-30 18:37 | 53.47660 | 6.83656 | 26411 ft | 462 kts | 204° |
| 2026-04-30 18:37 | 53.44757 | 6.81337 | 26411 ft | 462 kts | 204° |
| 2026-04-30 18:37 | 53.41857 | 6.79024 | 26408 ft | 461 kts | 204° |
| 2026-04-30 18:38 | 53.38955 | 6.76715 | 26409 ft | 461 kts | 204° |
| 2026-04-30 18:38 | 53.36058 | 6.74414 | 26397 ft | 460 kts | 204° |
| 2026-04-30 18:38 | 53.33202 | 6.72148 | 26391 ft | 461 kts | 204° |
| 2026-04-30 18:38 | 53.30302 | 6.69851 | 26390 ft | 461 kts | 204° |
| 2026-04-30 18:39 | 53.27408 | 6.67561 | 26388 ft | 456 kts | 204° |
| 2026-04-30 18:39 | 53.24609 | 6.65346 | 26382 ft | 436 kts | 204° |
| 2026-04-30 18:39 | 53.21886 | 6.63200 | 26373 ft | 433 kts | 204° |
| 2026-04-30 18:39 | 53.19138 | 6.61044 | 26371 ft | 437 kts | 204° |
| 2026-04-30 18:40 | 53.16394 | 6.58883 | 26370 ft | 436 kts | 204° |
| 2026-04-30 18:40 | 53.13661 | 6.56732 | 26367 ft | 434 kts | 204° |
| 2026-04-30 18:40 | 53.10931 | 6.54592 | 26369 ft | 433 kts | 203° |
| 2026-04-30 18:40 | 53.08197 | 6.52455 | 26369 ft | 434 kts | 203° |
| 2026-04-30 18:41 | 53.05455 | 6.50312 | 26366 ft | 435 kts | 204° |
| 2026-04-30 18:41 | 53.02756 | 6.48200 | 26369 ft | 434 kts | 203° |
| 2026-04-30 18:41 | 53.00012 | 6.46059 | 26366 ft | 434 kts | 203° |
| 2026-04-30 18:41 | 52.97272 | 6.43927 | 26363 ft | 434 kts | 203° |
| 2026-04-30 18:42 | 52.94543 | 6.41807 | 26365 ft | 434 kts | 203° |
| 2026-04-30 18:42 | 52.89082 | 6.37566 | 26364 ft | 433 kts | 203° |
| 2026-04-30 18:42 | 52.86387 | 6.35338 | 26360 ft | 434 kts | 209° |
| 2026-04-30 18:45 | 52.67714 | 6.01092 | 19566 ft | 366 kts | 234° |
| 2026-04-30 18:45 | 52.66415 | 5.97508 | 18879 ft | 364 kts | 237° |
| 2026-04-30 18:45 | 52.65104 | 5.93961 | 18138 ft | 360 kts | 233° |
| 2026-04-30 18:46 | 52.63698 | 5.90594 | 17373 ft | 354 kts | 231° |
| 2026-04-30 18:46 | 52.62306 | 5.87286 | 16635 ft | 350 kts | 232° |
| 2026-04-30 18:46 | 52.60973 | 5.83946 | 15910 ft | 346 kts | 233° |
| 2026-04-30 18:46 | 52.59679 | 5.80687 | 15204 ft | 343 kts | 233° |
| 2026-04-30 18:47 | 52.58361 | 5.77448 | 14519 ft | 339 kts | 232° |
| 2026-04-30 18:47 | 52.57061 | 5.74264 | 13810 ft | 329 kts | 232° |
| 2026-04-30 18:47 | 52.55828 | 5.71215 | 13041 ft | 314 kts | 232° |
| 2026-04-30 18:47 | 52.54637 | 5.68284 | 12305 ft | 304 kts | 232° |
| 2026-04-30 18:48 | 52.53466 | 5.65416 | 11582 ft | 301 kts | 232° |
| 2026-04-30 18:48 | 52.52305 | 5.62567 | 10876 ft | 299 kts | 232° |
| 2026-04-30 18:48 | 52.51151 | 5.59741 | 10182 ft | 297 kts | 232° |
| 2026-04-30 18:48 | 52.50007 | 5.56936 | 9430 ft | 294 kts | 232° |
| 2026-04-30 18:49 | 52.48764 | 5.54332 | 8734 ft | 284 kts | 219° |
| 2026-04-30 18:49 | 52.47288 | 5.52259 | 8181 ft | 277 kts | 213° |
| 2026-04-30 18:49 | 52.45775 | 5.50297 | 7640 ft | 277 kts | 213° |
| 2026-04-30 18:49 | 52.44253 | 5.48361 | 7143 ft | 280 kts | 212° |
| 2026-04-30 18:50 | 52.42694 | 5.46390 | 6562 ft | 283 kts | 212° |
| 2026-04-30 18:50 | 52.41142 | 5.44423 | 5962 ft | 281 kts | 212° |
| 2026-04-30 18:50 | 52.39601 | 5.42468 | 5365 ft | 279 kts | 212° |
| 2026-04-30 18:50 | 52.38073 | 5.40531 | 4764 ft | 277 kts | 212° |
| 2026-04-30 18:51 | 52.36564 | 5.38614 | 4333 ft | 269 kts | 213° |
| 2026-04-30 18:51 | 52.35137 | 5.36787 | 4317 ft | 253 kts | 212° |
| 2026-04-30 18:51 | 52.33761 | 5.35019 | 4315 ft | 258 kts | 212° |
| 2026-04-30 18:51 | 52.32328 | 5.33189 | 4312 ft | 262 kts | 212° |
| 2026-04-30 18:52 | 52.30889 | 5.31357 | 4313 ft | 262 kts | 212° |
| 2026-04-30 18:52 | 52.29458 | 5.29531 | 4311 ft | 260 kts | 212° |
| 2026-04-30 18:52 | 52.28032 | 5.27716 | 4309 ft | 261 kts | 213° |
| 2026-04-30 18:52 | 52.26589 | 5.25892 | 4314 ft | 263 kts | 212° |
| 2026-04-30 18:53 | 52.25149 | 5.24064 | 4310 ft | 261 kts | 212° |
| 2026-04-30 18:53 | 52.23736 | 5.22265 | 4315 ft | 260 kts | 212° |
| 2026-04-30 18:53 | 52.22307 | 5.20451 | 4316 ft | 261 kts | 212° |
| 2026-04-30 18:53 | 52.20871 | 5.18633 | 4314 ft | 262 kts | 212° |
| 2026-04-30 18:54 | 52.19425 | 5.16796 | 4313 ft | 264 kts | 212° |
| 2026-04-30 18:54 | 52.17982 | 5.14952 | 4315 ft | 263 kts | 213° |
| 2026-04-30 18:54 | 52.16546 | 5.13129 | 4317 ft | 261 kts | 212° |
| 2026-04-30 18:54 | 52.15121 | 5.11314 | 4322 ft | 259 kts | 212° |
| 2026-04-30 18:55 | 52.13698 | 5.09500 | 4321 ft | 260 kts | 213° |
| 2026-04-30 18:55 | 52.10912 | 5.05734 | 4299 ft | 265 kts | 223° |
| 2026-04-30 18:55 | 52.09964 | 5.03097 | 4000 ft | 278 kts | 249° |
| 2026-04-30 18:56 | 52.09960 | 4.96824 | 3442 ft | 273 kts | 272° |
| 2026-04-30 18:56 | 52.10138 | 4.93793 | 3156 ft | 266 kts | 272° |
| 2026-04-30 18:56 | 52.10324 | 4.90849 | 3001 ft | 254 kts | 272° |
| 2026-04-30 18:57 | 52.10682 | 4.85450 | 2990 ft | 227 kts | 272° |
| 2026-04-30 18:57 | 52.10858 | 4.82967 | 2801 ft | 226 kts | 272° |
| 2026-04-30 18:57 | 52.11031 | 4.80412 | 2408 ft | 227 kts | 273° |
| 2026-04-30 18:58 | 52.12562 | 4.76454 | 1981 ft | 194 kts | 339° |
| 2026-04-30 18:58 | 52.13858 | 4.76177 | 1996 ft | 189 kts | 18° |
| 2026-04-30 18:58 | 52.15165 | 4.76482 | 1993 ft | 192 kts | 11° |
| 2026-04-30 18:59 | 52.17866 | 4.76708 | 1997 ft | 189 kts | 13° |
| 2026-04-30 19:00 | 52.21826 | 4.77075 | 1466 ft | 181 kts | 13° |
| 2026-04-30 19:00 | 52.23061 | 4.77193 | 1228 ft | 176 kts | 10° |
| 2026-04-30 19:00 | 52.25402 | 4.77270 | 735 ft | 161 kts | 9° |
| 2026-04-30 19:01 | 52.27476 | 4.77291 | 427 ft | 152 kts | 359° |
| 2026-04-30 19:01 | 52.28559 | 4.77175 | 410 ft | 154 kts | 11° |
| 2026-04-30 19:02 | 52.30218 | 4.78577 | 34 ft | 111 kts | 52° |
| 2026-04-30 19:02 | 52.30891 | 4.79627 | -15 ft | 14 kts | 117° |
| 2026-04-30 19:03 | 52.30863 | 4.79692 | -13 ft | 4 kts | 134° |
| 2026-04-30 19:03 | 52.30913 | 4.79949 | -12 ft | 19 kts | 41° |
| 2026-04-30 19:04 | 52.31053 | 4.80154 | -12 ft | 8 kts | 50° |
| 2026-04-30 19:04 | 52.31052 | 4.80297 | -12 ft | 6 kts | 45° |
| 2026-04-30 19:05 | 52.31122 | 4.80388 | -12 ft | 7 kts | 331° |
| 2026-04-30 19:05 | 52.31138 | 4.80358 | -12 ft | 0 kts | 310° |